sensor_id;sensor_type;location;lat;lon;timestamp;P1;durP1;ratioP1;P2;durP2;ratioP2
79702;SDS011;69172;52.352;5.006;2023-06-19T00:00:15;13.35;;;7.57;;
79702;SDS011;69172;52.352;5.006;2023-06-19T00:02:41;14.85;;;7.63;;
79702;SDS011;69172;52.352;5.006;2023-06-19T00:05:07;15.10;;;8.88;;
79702;SDS011;69172;52.352;5.006;2023-06-19T00:07:36;12.05;;;7.25;;
79702;SDS011;69172;52.352;5.006;2023-06-19T00:10:03;14.20;;;7.72;;
79702;SDS011;69172;52.352;5.006;2023-06-19T00:12:29;12.07;;;7.95;;
79702;SDS011;69172;52.352;5.006;2023-06-19T00:14:54;12.77;;;7.38;;
79702;SDS011;69172;52.352;5.006;2023-06-19T00:17:20;12.32;;;6.95;;
79702;SDS011;69172;52.352;5.006;2023-06-19T00:19:45;12.10;;;6.93;;
79702;SDS011;69172;52.352;5.006;2023-06-19T00:22:11;13.23;;;7.88;;
79702;SDS011;69172;52.352;5.006;2023-06-19T00:24:37;12.23;;;7.28;;
79702;SDS011;69172;52.352;5.006;2023-06-19T00:27:02;12.32;;;7.03;;
79702;SDS011;69172;52.352;5.006;2023-06-19T00:29:31;11.55;;;7.90;;
79702;SDS011;69172;52.352;5.006;2023-06-19T00:31:58;12.85;;;7.18;;
79702;SDS011;69172;52.352;5.006;2023-06-19T00:34:24;11.15;;;7.13;;
79702;SDS011;69172;52.352;5.006;2023-06-19T00:36:51;12.43;;;7.90;;
79702;SDS011;69172;52.352;5.006;2023-06-19T00:39:21;12.02;;;7.40;;
79702;SDS011;69172;52.352;5.006;2023-06-19T00:41:46;14.65;;;7.13;;
79702;SDS011;69172;52.352;5.006;2023-06-19T00:44:13;12.57;;;7.25;;
79702;SDS011;69172;52.352;5.006;2023-06-19T00:46:40;10.23;;;5.82;;
79702;SDS011;69172;52.352;5.006;2023-06-19T00:49:06;11.30;;;5.57;;
79702;SDS011;69172;52.352;5.006;2023-06-19T00:51:32;10.05;;;5.65;;
79702;SDS011;69172;52.352;5.006;2023-06-19T00:53:57;14.18;;;5.60;;
79702;SDS011;69172;52.352;5.006;2023-06-19T00:56:23;10.90;;;5.28;;
79702;SDS011;69172;52.352;5.006;2023-06-19T00:58:48;13.02;;;6.50;;
79702;SDS011;69172;52.352;5.006;2023-06-19T01:01:14;9.82;;;5.38;;
79702;SDS011;69172;52.352;5.006;2023-06-19T01:03:39;10.77;;;6.13;;
79702;SDS011;69172;52.352;5.006;2023-06-19T01:06:05;11.07;;;5.78;;
79702;SDS011;69172;52.352;5.006;2023-06-19T01:11:48;11.13;;;5.13;;
79702;SDS011;69172;52.352;5.006;2023-06-19T01:14:27;8.85;;;5.00;;
79702;SDS011;69172;52.352;5.006;2023-06-19T01:16:56;10.65;;;4.57;;
79702;SDS011;69172;52.352;5.006;2023-06-19T01:19:22;7.72;;;4.25;;
79702;SDS011;69172;52.352;5.006;2023-06-19T01:21:47;10.00;;;3.60;;
79702;SDS011;69172;52.352;5.006;2023-06-19T01:24:14;7.30;;;3.10;;
79702;SDS011;69172;52.352;5.006;2023-06-19T01:26:39;8.23;;;3.40;;
79702;SDS011;69172;52.352;5.006;2023-06-19T01:29:05;9.68;;;3.30;;
79702;SDS011;69172;52.352;5.006;2023-06-19T01:31:31;9.25;;;2.60;;
79702;SDS011;69172;52.352;5.006;2023-06-19T01:34:01;7.07;;;2.47;;
79702;SDS011;69172;52.352;5.006;2023-06-19T01:36:29;5.63;;;2.40;;
79702;SDS011;69172;52.352;5.006;2023-06-19T01:38:56;5.25;;;2.25;;
79702;SDS011;69172;52.352;5.006;2023-06-19T01:41:23;6.03;;;2.10;;
79702;SDS011;69172;52.352;5.006;2023-06-19T01:43:50;7.97;;;2.10;;
79702;SDS011;69172;52.352;5.006;2023-06-19T01:46:16;6.20;;;1.90;;
79702;SDS011;69172;52.352;5.006;2023-06-19T01:48:41;5.95;;;1.98;;
79702;SDS011;69172;52.352;5.006;2023-06-19T01:51:07;5.30;;;1.92;;
79702;SDS011;69172;52.352;5.006;2023-06-19T01:53:32;7.00;;;2.60;;
79702;SDS011;69172;52.352;5.006;2023-06-19T01:55:59;5.13;;;1.70;;
79702;SDS011;69172;52.352;5.006;2023-06-19T01:58:25;6.25;;;2.13;;
79702;SDS011;69172;52.352;5.006;2023-06-19T02:00:50;5.80;;;1.85;;
79702;SDS011;69172;52.352;5.006;2023-06-19T02:03:16;4.45;;;2.03;;
79702;SDS011;69172;52.352;5.006;2023-06-19T02:05:41;5.50;;;2.00;;
79702;SDS011;69172;52.352;5.006;2023-06-19T02:08:07;6.40;;;2.17;;
79702;SDS011;69172;52.352;5.006;2023-06-19T02:10:33;14.38;;;3.38;;
79702;SDS011;69172;52.352;5.006;2023-06-19T02:12:58;7.40;;;2.97;;
79702;SDS011;69172;52.352;5.006;2023-06-19T02:15:23;8.07;;;2.83;;
79702;SDS011;69172;52.352;5.006;2023-06-19T02:17:49;7.95;;;3.08;;
79702;SDS011;69172;52.352;5.006;2023-06-19T02:20:20;7.65;;;3.67;;
79702;SDS011;69172;52.352;5.006;2023-06-19T02:22:49;9.43;;;4.10;;
79702;SDS011;69172;52.352;5.006;2023-06-19T02:25:15;8.85;;;3.60;;
79702;SDS011;69172;52.352;5.006;2023-06-19T02:27:41;9.38;;;3.67;;
79702;SDS011;69172;52.352;5.006;2023-06-19T02:30:06;9.65;;;4.60;;
79702;SDS011;69172;52.352;5.006;2023-06-19T02:32:32;10.63;;;5.28;;
79702;SDS011;69172;52.352;5.006;2023-06-19T02:34:57;8.95;;;5.25;;
79702;SDS011;69172;52.352;5.006;2023-06-19T02:37:23;9.00;;;5.53;;
79702;SDS011;69172;52.352;5.006;2023-06-19T02:39:48;11.27;;;5.20;;
79702;SDS011;69172;52.352;5.006;2023-06-19T02:42:14;9.48;;;5.38;;
79702;SDS011;69172;52.352;5.006;2023-06-19T02:44:39;11.77;;;5.68;;
79702;SDS011;69172;52.352;5.006;2023-06-19T02:47:05;11.32;;;5.70;;
79702;SDS011;69172;52.352;5.006;2023-06-19T02:49:31;11.13;;;5.55;;
79702;SDS011;69172;52.352;5.006;2023-06-19T02:51:56;10.60;;;5.47;;
79702;SDS011;69172;52.352;5.006;2023-06-19T02:54:22;11.27;;;5.85;;
79702;SDS011;69172;52.352;5.006;2023-06-19T02:56:47;9.02;;;5.38;;
79702;SDS011;69172;52.352;5.006;2023-06-19T02:59:13;8.50;;;4.90;;
79702;SDS011;69172;52.352;5.006;2023-06-19T03:01:38;9.85;;;5.45;;
79702;SDS011;69172;52.352;5.006;2023-06-19T03:04:04;9.65;;;5.55;;
79702;SDS011;69172;52.352;5.006;2023-06-19T03:06:29;9.63;;;5.85;;
79702;SDS011;69172;52.352;5.006;2023-06-19T03:08:56;14.27;;;7.10;;
79702;SDS011;69172;52.352;5.006;2023-06-19T03:11:22;10.05;;;6.10;;
79702;SDS011;69172;52.352;5.006;2023-06-19T03:13:50;11.07;;;6.68;;
79702;SDS011;69172;52.352;5.006;2023-06-19T03:16:16;12.00;;;6.32;;
79702;SDS011;69172;52.352;5.006;2023-06-19T03:18:43;12.25;;;7.20;;
79702;SDS011;69172;52.352;5.006;2023-06-19T03:21:10;13.90;;;7.28;;
79702;SDS011;69172;52.352;5.006;2023-06-19T03:23:35;12.93;;;7.10;;
79702;SDS011;69172;52.352;5.006;2023-06-19T03:26:01;16.13;;;8.40;;
79702;SDS011;69172;52.352;5.006;2023-06-19T03:28:33;18.85;;;9.70;;
79702;SDS011;69172;52.352;5.006;2023-06-19T03:30:59;16.13;;;10.55;;
79702;SDS011;69172;52.352;5.006;2023-06-19T03:33:25;19.08;;;12.05;;
79702;SDS011;69172;52.352;5.006;2023-06-19T03:35:51;23.05;;;16.05;;
79702;SDS011;69172;52.352;5.006;2023-06-19T03:38:16;22.77;;;15.32;;
79702;SDS011;69172;52.352;5.006;2023-06-19T03:40:41;25.95;;;17.27;;
79702;SDS011;69172;52.352;5.006;2023-06-19T03:43:07;30.42;;;19.35;;
79702;SDS011;69172;52.352;5.006;2023-06-19T03:45:32;29.25;;;20.92;;
79702;SDS011;69172;52.352;5.006;2023-06-19T03:47:57;32.05;;;21.77;;
79702;SDS011;69172;52.352;5.006;2023-06-19T03:50:23;34.38;;;23.02;;
79702;SDS011;69172;52.352;5.006;2023-06-19T03:52:48;34.47;;;23.67;;
79702;SDS011;69172;52.352;5.006;2023-06-19T03:55:13;33.13;;;22.48;;
79702;SDS011;69172;52.352;5.006;2023-06-19T03:57:39;31.55;;;21.98;;
79702;SDS011;69172;52.352;5.006;2023-06-19T04:00:04;26.60;;;18.92;;
79702;SDS011;69172;52.352;5.006;2023-06-19T04:02:32;25.55;;;17.48;;
79702;SDS011;69172;52.352;5.006;2023-06-19T04:04:58;26.33;;;17.40;;
79702;SDS011;69172;52.352;5.006;2023-06-19T04:07:23;24.17;;;16.45;;
79702;SDS011;69172;52.352;5.006;2023-06-19T04:09:49;26.92;;;17.35;;
79702;SDS011;69172;52.352;5.006;2023-06-19T04:12:15;26.63;;;16.60;;
79702;SDS011;69172;52.352;5.006;2023-06-19T04:14:41;25.55;;;17.27;;
79702;SDS011;69172;52.352;5.006;2023-06-19T04:17:06;23.90;;;15.80;;
79702;SDS011;69172;52.352;5.006;2023-06-19T04:19:31;23.42;;;15.20;;
79702;SDS011;69172;52.352;5.006;2023-06-19T04:21:57;22.45;;;15.30;;
79702;SDS011;69172;52.352;5.006;2023-06-19T04:24:22;20.58;;;13.27;;
79702;SDS011;69172;52.352;5.006;2023-06-19T04:26:47;17.70;;;12.30;;
79702;SDS011;69172;52.352;5.006;2023-06-19T04:29:12;21.23;;;13.57;;
79702;SDS011;69172;52.352;5.006;2023-06-19T04:31:42;21.42;;;14.93;;
79702;SDS011;69172;52.352;5.006;2023-06-19T04:34:12;32.45;;;18.92;;
79702;SDS011;69172;52.352;5.006;2023-06-19T04:36:47;33.95;;;21.00;;
79702;SDS011;69172;52.352;5.006;2023-06-19T04:39:13;42.30;;;24.00;;
79702;SDS011;69172;52.352;5.006;2023-06-19T04:41:40;50.65;;;27.02;;
79702;SDS011;69172;52.352;5.006;2023-06-19T04:44:06;48.95;;;28.25;;
79702;SDS011;69172;52.352;5.006;2023-06-19T04:46:32;54.70;;;27.67;;
79702;SDS011;69172;52.352;5.006;2023-06-19T04:48:58;54.90;;;30.17;;
79702;SDS011;69172;52.352;5.006;2023-06-19T04:51:23;50.00;;;29.42;;
79702;SDS011;69172;52.352;5.006;2023-06-19T04:53:48;56.35;;;30.60;;
79702;SDS011;69172;52.352;5.006;2023-06-19T04:56:14;55.45;;;30.63;;
79702;SDS011;69172;52.352;5.006;2023-06-19T04:58:40;46.17;;;27.38;;
79702;SDS011;69172;52.352;5.006;2023-06-19T05:01:13;45.35;;;25.88;;
79702;SDS011;69172;52.352;5.006;2023-06-19T05:03:40;42.45;;;24.10;;
79702;SDS011;69172;52.352;5.006;2023-06-19T05:06:06;38.45;;;22.90;;
79702;SDS011;69172;52.352;5.006;2023-06-19T05:08:32;41.20;;;22.15;;
79702;SDS011;69172;52.352;5.006;2023-06-19T05:10:57;36.80;;;20.05;;
79702;SDS011;69172;52.352;5.006;2023-06-19T05:13:23;32.28;;;18.42;;
79702;SDS011;69172;52.352;5.006;2023-06-19T05:15:49;32.00;;;19.13;;
79702;SDS011;69172;52.352;5.006;2023-06-19T05:18:15;27.33;;;17.40;;
79702;SDS011;69172;52.352;5.006;2023-06-19T05:20:41;31.92;;;17.65;;
79702;SDS011;69172;52.352;5.006;2023-06-19T05:23:07;27.08;;;17.65;;
79702;SDS011;69172;52.352;5.006;2023-06-19T05:25:32;28.17;;;17.17;;
79702;SDS011;69172;52.352;5.006;2023-06-19T05:27:57;30.38;;;16.88;;
79702;SDS011;69172;52.352;5.006;2023-06-19T05:30:23;25.42;;;14.88;;
79702;SDS011;69172;52.352;5.006;2023-06-19T05:32:48;23.30;;;14.70;;
79702;SDS011;69172;52.352;5.006;2023-06-19T05:35:13;24.00;;;14.43;;
79702;SDS011;69172;52.352;5.006;2023-06-19T05:37:38;23.38;;;14.10;;
79702;SDS011;69172;52.352;5.006;2023-06-19T05:40:05;19.35;;;12.20;;
79702;SDS011;69172;52.352;5.006;2023-06-19T05:42:31;18.77;;;12.07;;
79702;SDS011;69172;52.352;5.006;2023-06-19T05:44:56;21.85;;;12.32;;
79702;SDS011;69172;52.352;5.006;2023-06-19T05:47:22;17.98;;;11.80;;
79702;SDS011;69172;52.352;5.006;2023-06-19T05:49:50;19.10;;;11.55;;
79702;SDS011;69172;52.352;5.006;2023-06-19T05:52:17;18.10;;;10.73;;
79702;SDS011;69172;52.352;5.006;2023-06-19T05:54:42;17.80;;;10.27;;
79702;SDS011;69172;52.352;5.006;2023-06-19T05:57:07;17.25;;;10.73;;
79702;SDS011;69172;52.352;5.006;2023-06-19T05:59:33;16.83;;;10.38;;
79702;SDS011;69172;52.352;5.006;2023-06-19T06:01:58;17.80;;;10.97;;
79702;SDS011;69172;52.352;5.006;2023-06-19T06:04:23;17.58;;;10.80;;
79702;SDS011;69172;52.352;5.006;2023-06-19T06:06:49;18.55;;;10.77;;
79702;SDS011;69172;52.352;5.006;2023-06-19T06:09:14;20.65;;;10.93;;
79702;SDS011;69172;52.352;5.006;2023-06-19T06:11:41;19.73;;;10.93;;
79702;SDS011;69172;52.352;5.006;2023-06-19T06:14:07;18.55;;;10.82;;
79702;SDS011;69172;52.352;5.006;2023-06-19T06:16:32;18.35;;;10.85;;
79702;SDS011;69172;52.352;5.006;2023-06-19T06:18:58;19.92;;;11.45;;
79702;SDS011;69172;52.352;5.006;2023-06-19T06:21:24;18.00;;;11.20;;
79702;SDS011;69172;52.352;5.006;2023-06-19T06:23:49;21.95;;;12.20;;
79702;SDS011;69172;52.352;5.006;2023-06-19T06:26:14;20.20;;;12.07;;
79702;SDS011;69172;52.352;5.006;2023-06-19T06:28:54;17.50;;;11.80;;
79702;SDS011;69172;52.352;5.006;2023-06-19T06:31:21;24.13;;;12.63;;
79702;SDS011;69172;52.352;5.006;2023-06-19T06:33:47;22.55;;;13.30;;
79702;SDS011;69172;52.352;5.006;2023-06-19T06:36:14;20.98;;;12.77;;
79702;SDS011;69172;52.352;5.006;2023-06-19T06:38:41;22.58;;;13.13;;
79702;SDS011;69172;52.352;5.006;2023-06-19T06:41:06;19.92;;;12.98;;
79702;SDS011;69172;52.352;5.006;2023-06-19T06:43:33;21.98;;;12.82;;
79702;SDS011;69172;52.352;5.006;2023-06-19T06:45:58;21.17;;;12.73;;
79702;SDS011;69172;52.352;5.006;2023-06-19T06:48:23;21.52;;;12.98;;
79702;SDS011;69172;52.352;5.006;2023-06-19T06:50:49;19.20;;;12.45;;
79702;SDS011;69172;52.352;5.006;2023-06-19T06:53:14;22.23;;;14.02;;
79702;SDS011;69172;52.352;5.006;2023-06-19T06:55:39;26.92;;;15.15;;
79702;SDS011;69172;52.352;5.006;2023-06-19T06:58:05;29.00;;;16.30;;
79702;SDS011;69172;52.352;5.006;2023-06-19T07:00:30;28.85;;;16.65;;
79702;SDS011;69172;52.352;5.006;2023-06-19T07:02:56;31.17;;;17.02;;
79702;SDS011;69172;52.352;5.006;2023-06-19T07:05:22;30.90;;;18.27;;
79702;SDS011;69172;52.352;5.006;2023-06-19T07:07:48;28.70;;;17.00;;
79702;SDS011;69172;52.352;5.006;2023-06-19T07:10:13;28.25;;;17.27;;
79702;SDS011;69172;52.352;5.006;2023-06-19T07:12:45;28.58;;;16.92;;
79702;SDS011;69172;52.352;5.006;2023-06-19T07:15:13;27.17;;;16.50;;
79702;SDS011;69172;52.352;5.006;2023-06-19T07:17:39;26.85;;;16.33;;
79702;SDS011;69172;52.352;5.006;2023-06-19T07:20:05;23.15;;;14.98;;
79702;SDS011;69172;52.352;5.006;2023-06-19T07:22:31;25.63;;;15.63;;
79702;SDS011;69172;52.352;5.006;2023-06-19T07:24:57;25.98;;;15.23;;
79702;SDS011;69172;52.352;5.006;2023-06-19T07:27:22;24.27;;;15.18;;
79702;SDS011;69172;52.352;5.006;2023-06-19T07:29:53;23.58;;;14.52;;
79702;SDS011;69172;52.352;5.006;2023-06-19T07:32:18;23.40;;;14.77;;
79702;SDS011;69172;52.352;5.006;2023-06-19T07:34:45;22.10;;;13.82;;
79702;SDS011;69172;52.352;5.006;2023-06-19T07:37:10;20.25;;;13.40;;
79702;SDS011;69172;52.352;5.006;2023-06-19T07:39:42;20.50;;;13.75;;
79702;SDS011;69172;52.352;5.006;2023-06-19T07:42:09;21.27;;;12.98;;
79702;SDS011;69172;52.352;5.006;2023-06-19T07:44:35;19.80;;;11.88;;
79702;SDS011;69172;52.352;5.006;2023-06-19T07:47:01;18.30;;;11.75;;
79702;SDS011;69172;52.352;5.006;2023-06-19T07:49:26;20.55;;;12.48;;
79702;SDS011;69172;52.352;5.006;2023-06-19T07:51:51;20.70;;;11.52;;
79702;SDS011;69172;52.352;5.006;2023-06-19T07:54:17;18.40;;;12.40;;
79702;SDS011;69172;52.352;5.006;2023-06-19T07:56:42;17.10;;;10.95;;
79702;SDS011;69172;52.352;5.006;2023-06-19T07:59:07;19.23;;;11.60;;
79702;SDS011;69172;52.352;5.006;2023-06-19T08:01:33;19.23;;;11.63;;
79702;SDS011;69172;52.352;5.006;2023-06-19T08:03:58;18.00;;;11.07;;
79702;SDS011;69172;52.352;5.006;2023-06-19T08:06:23;21.13;;;11.73;;
79702;SDS011;69172;52.352;5.006;2023-06-19T08:08:49;19.83;;;12.05;;
79702;SDS011;69172;52.352;5.006;2023-06-19T08:11:14;16.88;;;10.80;;
79702;SDS011;69172;52.352;5.006;2023-06-19T08:13:39;20.10;;;10.93;;
79702;SDS011;69172;52.352;5.006;2023-06-19T08:16:05;19.05;;;11.88;;
79702;SDS011;69172;52.352;5.006;2023-06-19T08:18:31;21.55;;;12.27;;
79702;SDS011;69172;52.352;5.006;2023-06-19T08:20:56;21.48;;;12.10;;
79702;SDS011;69172;52.352;5.006;2023-06-19T08:23:21;24.20;;;13.00;;
79702;SDS011;69172;52.352;5.006;2023-06-19T08:25:47;18.17;;;11.63;;
79702;SDS011;69172;52.352;5.006;2023-06-19T08:28:12;18.90;;;11.45;;
79702;SDS011;69172;52.352;5.006;2023-06-19T08:30:37;19.40;;;11.35;;
79702;SDS011;69172;52.352;5.006;2023-06-19T08:33:03;17.20;;;11.48;;
79702;SDS011;69172;52.352;5.006;2023-06-19T08:35:29;18.25;;;12.05;;
79702;SDS011;69172;52.352;5.006;2023-06-19T08:37:54;16.17;;;10.10;;
79702;SDS011;69172;52.352;5.006;2023-06-19T08:40:19;16.40;;;9.88;;
79702;SDS011;69172;52.352;5.006;2023-06-19T08:42:46;16.92;;;9.88;;
79702;SDS011;69172;52.352;5.006;2023-06-19T08:45:11;19.67;;;10.60;;
79702;SDS011;69172;52.352;5.006;2023-06-19T08:47:38;18.65;;;10.70;;
79702;SDS011;69172;52.352;5.006;2023-06-19T08:50:03;16.17;;;10.40;;
79702;SDS011;69172;52.352;5.006;2023-06-19T08:52:30;18.23;;;10.30;;
79702;SDS011;69172;52.352;5.006;2023-06-19T08:54:55;17.95;;;11.07;;
79702;SDS011;69172;52.352;5.006;2023-06-19T08:57:20;18.35;;;10.68;;
79702;SDS011;69172;52.352;5.006;2023-06-19T08:59:49;16.50;;;9.68;;
79702;SDS011;69172;52.352;5.006;2023-06-19T09:02:16;18.17;;;11.07;;
79702;SDS011;69172;52.352;5.006;2023-06-19T09:04:42;19.48;;;11.95;;
79702;SDS011;69172;52.352;5.006;2023-06-19T09:07:08;20.55;;;12.20;;
79702;SDS011;69172;52.352;5.006;2023-06-19T09:09:33;18.15;;;11.82;;
79702;SDS011;69172;52.352;5.006;2023-06-19T09:12:00;19.80;;;12.75;;
79702;SDS011;69172;52.352;5.006;2023-06-19T09:14:34;19.25;;;12.23;;
79702;SDS011;69172;52.352;5.006;2023-06-19T09:17:04;19.15;;;12.45;;
79702;SDS011;69172;52.352;5.006;2023-06-19T09:19:32;17.98;;;11.45;;
79702;SDS011;69172;52.352;5.006;2023-06-19T09:22:03;17.92;;;11.68;;
79702;SDS011;69172;52.352;5.006;2023-06-19T09:24:38;17.83;;;11.55;;
79702;SDS011;69172;52.352;5.006;2023-06-19T09:27:08;19.75;;;10.82;;
79702;SDS011;69172;52.352;5.006;2023-06-19T09:29:39;18.38;;;10.73;;
79702;SDS011;69172;52.352;5.006;2023-06-19T09:32:21;19.33;;;10.90;;
79702;SDS011;69172;52.352;5.006;2023-06-19T09:34:49;18.30;;;10.40;;
79702;SDS011;69172;52.352;5.006;2023-06-19T09:37:21;18.75;;;10.82;;
79702;SDS011;69172;52.352;5.006;2023-06-19T09:39:53;18.33;;;10.23;;
79702;SDS011;69172;52.352;5.006;2023-06-19T09:42:22;17.90;;;10.48;;
79702;SDS011;69172;52.352;5.006;2023-06-19T09:44:53;16.65;;;10.57;;
79702;SDS011;69172;52.352;5.006;2023-06-19T09:47:24;19.27;;;10.88;;
79702;SDS011;69172;52.352;5.006;2023-06-19T09:49:55;16.52;;;9.50;;
79702;SDS011;69172;52.352;5.006;2023-06-19T09:52:22;20.35;;;11.35;;
79702;SDS011;69172;52.352;5.006;2023-06-19T09:54:51;18.65;;;11.13;;
79702;SDS011;69172;52.352;5.006;2023-06-19T09:57:18;21.40;;;11.77;;
79702;SDS011;69172;52.352;5.006;2023-06-19T09:59:48;20.55;;;13.00;;
79702;SDS011;69172;52.352;5.006;2023-06-19T10:02:18;19.27;;;12.02;;
79702;SDS011;69172;52.352;5.006;2023-06-19T10:04:52;19.98;;;12.27;;
79702;SDS011;69172;52.352;5.006;2023-06-19T10:07:22;15.88;;;10.35;;
79702;SDS011;69172;52.352;5.006;2023-06-19T10:09:55;19.85;;;12.32;;
79702;SDS011;69172;52.352;5.006;2023-06-19T10:12:21;19.67;;;11.65;;
79702;SDS011;69172;52.352;5.006;2023-06-19T10:14:47;18.48;;;11.68;;
79702;SDS011;69172;52.352;5.006;2023-06-19T10:17:18;24.80;;;13.18;;
79702;SDS011;69172;52.352;5.006;2023-06-19T10:19:50;18.95;;;12.20;;
79702;SDS011;69172;52.352;5.006;2023-06-19T10:22:21;20.50;;;11.75;;
79702;SDS011;69172;52.352;5.006;2023-06-19T10:24:49;19.23;;;11.80;;
79702;SDS011;69172;52.352;5.006;2023-06-19T10:27:20;18.33;;;11.20;;
79702;SDS011;69172;52.352;5.006;2023-06-19T10:29:51;19.45;;;12.27;;
79702;SDS011;69172;52.352;5.006;2023-06-19T10:32:18;18.70;;;12.10;;
79702;SDS011;69172;52.352;5.006;2023-06-19T10:34:47;19.15;;;11.38;;
79702;SDS011;69172;52.352;5.006;2023-06-19T10:37:14;19.50;;;10.88;;
79702;SDS011;69172;52.352;5.006;2023-06-19T10:39:40;18.98;;;11.82;;
79702;SDS011;69172;52.352;5.006;2023-06-19T10:42:06;18.60;;;11.57;;
79702;SDS011;69172;52.352;5.006;2023-06-19T10:44:33;17.05;;;9.90;;
79702;SDS011;69172;52.352;5.006;2023-06-19T10:46:58;16.55;;;10.70;;
79702;SDS011;69172;52.352;5.006;2023-06-19T10:49:23;18.52;;;10.75;;
79702;SDS011;69172;52.352;5.006;2023-06-19T10:51:49;16.73;;;10.65;;
79702;SDS011;69172;52.352;5.006;2023-06-19T10:54:15;15.55;;;10.07;;
79702;SDS011;69172;52.352;5.006;2023-06-19T10:56:41;14.60;;;9.90;;
79702;SDS011;69172;52.352;5.006;2023-06-19T10:59:09;16.60;;;9.75;;
79702;SDS011;69172;52.352;5.006;2023-06-19T11:01:39;15.10;;;10.10;;
79702;SDS011;69172;52.352;5.006;2023-06-19T11:04:08;15.40;;;9.82;;
79702;SDS011;69172;52.352;5.006;2023-06-19T11:06:36;14.88;;;9.52;;
79702;SDS011;69172;52.352;5.006;2023-06-19T11:09:03;14.70;;;9.23;;
79702;SDS011;69172;52.352;5.006;2023-06-19T11:14:02;15.68;;;9.73;;
79702;SDS011;69172;52.352;5.006;2023-06-19T11:16:28;15.52;;;8.50;;
79702;SDS011;69172;52.352;5.006;2023-06-19T11:18:57;15.50;;;8.88;;
79702;SDS011;69172;52.352;5.006;2023-06-19T11:21:36;16.35;;;10.02;;
79702;SDS011;69172;52.352;5.006;2023-06-19T11:24:06;16.83;;;8.90;;
79702;SDS011;69172;52.352;5.006;2023-06-19T11:26:42;13.43;;;8.95;;
79702;SDS011;69172;52.352;5.006;2023-06-19T11:29:14;14.85;;;9.07;;
79702;SDS011;69172;52.352;5.006;2023-06-19T11:32:08;16.55;;;8.60;;
79702;SDS011;69172;52.352;5.006;2023-06-19T11:34:36;14.63;;;8.77;;
79702;SDS011;69172;52.352;5.006;2023-06-19T11:37:17;15.82;;;8.45;;
79702;SDS011;69172;52.352;5.006;2023-06-19T11:39:44;15.60;;;8.60;;
79702;SDS011;69172;52.352;5.006;2023-06-19T11:42:11;12.57;;;8.20;;
79702;SDS011;69172;52.352;5.006;2023-06-19T11:44:51;12.82;;;7.75;;
79702;SDS011;69172;52.352;5.006;2023-06-19T11:47:33;14.93;;;9.10;;
79702;SDS011;69172;52.352;5.006;2023-06-19T11:49:59;13.95;;;7.57;;
79702;SDS011;69172;52.352;5.006;2023-06-19T11:52:35;13.85;;;7.50;;
79702;SDS011;69172;52.352;5.006;2023-06-19T11:55:00;16.02;;;7.50;;
79702;SDS011;69172;52.352;5.006;2023-06-19T11:57:26;15.38;;;8.55;;
79702;SDS011;69172;52.352;5.006;2023-06-19T11:59:52;13.10;;;8.27;;
79702;SDS011;69172;52.352;5.006;2023-06-19T12:02:17;13.05;;;7.40;;
79702;SDS011;69172;52.352;5.006;2023-06-19T12:04:42;13.43;;;7.38;;
79702;SDS011;69172;52.352;5.006;2023-06-19T12:07:08;13.70;;;7.05;;
79702;SDS011;69172;52.352;5.006;2023-06-19T12:09:34;11.05;;;6.53;;
79702;SDS011;69172;52.352;5.006;2023-06-19T12:11:59;13.27;;;6.93;;
79702;SDS011;69172;52.352;5.006;2023-06-19T12:14:25;12.82;;;6.70;;
79702;SDS011;69172;52.352;5.006;2023-06-19T12:16:51;16.50;;;7.53;;
79702;SDS011;69172;52.352;5.006;2023-06-19T12:19:17;12.07;;;6.75;;
79702;SDS011;69172;52.352;5.006;2023-06-19T12:21:42;19.90;;;8.93;;
79702;SDS011;69172;52.352;5.006;2023-06-19T12:24:08;15.00;;;8.05;;
79702;SDS011;69172;52.352;5.006;2023-06-19T12:26:34;12.32;;;6.82;;
79702;SDS011;69172;52.352;5.006;2023-06-19T12:29:03;12.27;;;6.32;;
79702;SDS011;69172;52.352;5.006;2023-06-19T12:31:30;13.32;;;6.13;;
79702;SDS011;69172;52.352;5.006;2023-06-19T12:33:56;14.77;;;7.55;;
79702;SDS011;69172;52.352;5.006;2023-06-19T12:36:21;16.17;;;5.65;;
79702;SDS011;69172;52.352;5.006;2023-06-19T12:38:47;12.43;;;5.32;;
79702;SDS011;69172;52.352;5.006;2023-06-19T12:41:13;10.48;;;5.35;;
79702;SDS011;69172;52.352;5.006;2023-06-19T12:43:39;10.98;;;4.70;;
79702;SDS011;69172;52.352;5.006;2023-06-19T12:46:05;10.45;;;5.10;;
79702;SDS011;69172;52.352;5.006;2023-06-19T12:48:30;9.98;;;5.75;;
79702;SDS011;69172;52.352;5.006;2023-06-19T12:50:57;12.20;;;5.05;;
79702;SDS011;69172;52.352;5.006;2023-06-19T12:53:22;11.80;;;4.95;;
79702;SDS011;69172;52.352;5.006;2023-06-19T12:55:51;11.77;;;5.38;;
79702;SDS011;69172;52.352;5.006;2023-06-19T12:58:18;10.45;;;4.97;;
79702;SDS011;69172;52.352;5.006;2023-06-19T13:00:43;9.52;;;4.50;;
79702;SDS011;69172;52.352;5.006;2023-06-19T13:03:09;10.13;;;4.30;;
79702;SDS011;69172;52.352;5.006;2023-06-19T13:05:34;10.05;;;4.60;;
79702;SDS011;69172;52.352;5.006;2023-06-19T13:07:59;11.27;;;4.82;;
79702;SDS011;69172;52.352;5.006;2023-06-19T13:10:25;10.25;;;4.75;;
79702;SDS011;69172;52.352;5.006;2023-06-19T13:12:50;9.48;;;4.95;;
79702;SDS011;69172;52.352;5.006;2023-06-19T13:15:16;10.73;;;5.20;;
79702;SDS011;69172;52.352;5.006;2023-06-19T13:17:42;10.52;;;4.75;;
79702;SDS011;69172;52.352;5.006;2023-06-19T13:20:07;9.57;;;3.88;;
79702;SDS011;69172;52.352;5.006;2023-06-19T13:22:33;9.13;;;4.40;;
79702;SDS011;69172;52.352;5.006;2023-06-19T13:24:58;11.25;;;4.93;;
79702;SDS011;69172;52.352;5.006;2023-06-19T13:27:24;7.88;;;4.25;;
79702;SDS011;69172;52.352;5.006;2023-06-19T13:29:49;10.68;;;4.85;;
79702;SDS011;69172;52.352;5.006;2023-06-19T13:32:15;9.68;;;4.47;;
79702;SDS011;69172;52.352;5.006;2023-06-19T13:34:40;11.30;;;4.75;;
79702;SDS011;69172;52.352;5.006;2023-06-19T13:37:06;9.10;;;4.80;;
79702;SDS011;69172;52.352;5.006;2023-06-19T13:39:31;10.05;;;4.90;;
79702;SDS011;69172;52.352;5.006;2023-06-19T13:41:57;10.68;;;4.60;;
79702;SDS011;69172;52.352;5.006;2023-06-19T13:44:25;9.40;;;4.95;;
79702;SDS011;69172;52.352;5.006;2023-06-19T13:46:50;11.52;;;5.00;;
79702;SDS011;69172;52.352;5.006;2023-06-19T13:49:15;9.13;;;4.85;;
79702;SDS011;69172;52.352;5.006;2023-06-19T13:51:41;10.25;;;5.43;;
79702;SDS011;69172;52.352;5.006;2023-06-19T13:54:09;9.93;;;5.35;;
79702;SDS011;69172;52.352;5.006;2023-06-19T13:56:34;11.13;;;5.13;;
79702;SDS011;69172;52.352;5.006;2023-06-19T13:59:00;12.65;;;5.38;;
79702;SDS011;69172;52.352;5.006;2023-06-19T14:01:25;11.20;;;5.90;;
79702;SDS011;69172;52.352;5.006;2023-06-19T14:03:51;9.85;;;5.15;;
79702;SDS011;69172;52.352;5.006;2023-06-19T14:06:16;10.32;;;5.63;;
79702;SDS011;69172;52.352;5.006;2023-06-19T14:08:42;9.50;;;5.28;;
79702;SDS011;69172;52.352;5.006;2023-06-19T14:11:07;11.95;;;5.90;;
79702;SDS011;69172;52.352;5.006;2023-06-19T14:13:33;11.00;;;5.28;;
79702;SDS011;69172;52.352;5.006;2023-06-19T14:15:58;10.93;;;6.10;;
79702;SDS011;69172;52.352;5.006;2023-06-19T14:18:23;11.00;;;5.50;;
79702;SDS011;69172;52.352;5.006;2023-06-19T14:20:49;10.05;;;5.72;;
79702;SDS011;69172;52.352;5.006;2023-06-19T14:23:14;11.75;;;6.70;;
79702;SDS011;69172;52.352;5.006;2023-06-19T14:25:41;11.20;;;6.85;;
79702;SDS011;69172;52.352;5.006;2023-06-19T14:28:06;14.73;;;7.22;;
79702;SDS011;69172;52.352;5.006;2023-06-19T14:30:31;11.02;;;6.10;;
79702;SDS011;69172;52.352;5.006;2023-06-19T14:32:58;11.65;;;6.03;;